sensor_id;sensor_type;location;lat;lon;timestamp;temperature;humidity
12460;DHT22;6295;49.452;8.466;2023-08-06T03:13:52;16.80;99.90
12460;DHT22;6295;49.452;8.466;2023-08-06T03:17:56;16.70;99.90
12460;DHT22;6295;49.452;8.466;2023-08-06T03:21:58;16.70;99.90
12460;DHT22;6295;49.452;8.466;2023-08-06T03:26:01;16.70;99.90
12460;DHT22;6295;49.452;8.466;2023-08-06T03:30:07;16.70;99.90
12460;DHT22;6295;49.452;8.466;2023-08-06T03:34:09;16.70;99.90
12460;DHT22;6295;49.452;8.466;2023-08-06T03:38:11;16.60;99.90
12460;DHT22;6295;49.452;8.466;2023-08-06T03:42:13;16.60;99.90
12460;DHT22;6295;49.452;8.466;2023-08-06T03:46:17;16.60;99.90
12460;DHT22;6295;49.452;8.466;2023-08-06T03:50:19;16.60;99.90
12460;DHT22;6295;49.452;8.466;2023-08-06T03:54:21;16.70;99.90
12460;DHT22;6295;49.452;8.466;2023-08-06T04:02:27;16.80;99.90
12460;DHT22;6295;49.452;8.466;2023-08-06T04:06:29;16.80;99.90
12460;DHT22;6295;49.452;8.466;2023-08-06T04:10:31;16.70;99.90
12460;DHT22;6295;49.452;8.466;2023-08-06T04:14:34;16.70;99.90
12460;DHT22;6295;49.452;8.466;2023-08-06T04:18:37;16.80;99.90
12460;DHT22;6295;49.452;8.466;2023-08-06T04:26:42;16.80;99.90
12460;DHT22;6295;49.452;8.466;2023-08-06T04:30:44;16.80;99.90
12460;DHT22;6295;49.452;8.466;2023-08-06T04:34:48;16.80;99.90
12460;DHT22;6295;49.452;8.466;2023-08-06T04:38:50;16.70;99.90
12460;DHT22;6295;49.452;8.466;2023-08-06T04:42:53;16.70;99.90
12460;DHT22;6295;49.452;8.466;2023-08-06T04:46:55;16.70;99.90
12460;DHT22;6295;49.452;8.466;2023-08-06T04:50:58;16.70;99.90
12460;DHT22;6295;49.452;8.466;2023-08-06T04:55:01;16.60;99.90
12460;DHT22;6295;49.452;8.466;2023-08-06T04:59:03;16.70;99.90
12460;DHT22;6295;49.452;8.466;2023-08-06T05:03:06;16.60;99.90
12460;DHT22;6295;49.452;8.466;2023-08-06T05:07:10;16.70;99.90
12460;DHT22;6295;49.452;8.466;2023-08-06T05:11:12;16.70;99.90
12460;DHT22;6295;49.452;8.466;2023-08-06T05:15:15;16.70;99.90
12460;DHT22;6295;49.452;8.466;2023-08-06T05:19:17;16.70;99.90
12460;DHT22;6295;49.452;8.466;2023-08-06T05:23:20;16.70;99.90
12460;DHT22;6295;49.452;8.466;2023-08-06T05:27:22;16.70;99.90
12460;DHT22;6295;49.452;8.466;2023-08-06T05:31:25;16.60;99.90
12460;DHT22;6295;49.452;8.466;2023-08-06T05:35:27;16.60;99.90
12460;DHT22;6295;49.452;8.466;2023-08-06T05:39:30;16.60;99.90
12460;DHT22;6295;49.452;8.466;2023-08-06T05:43:33;16.60;99.90
12460;DHT22;6295;49.452;8.466;2023-08-06T05:47:35;16.60;99.90
12460;DHT22;6295;49.452;8.466;2023-08-06T05:51:39;16.50;99.90
12460;DHT22;6295;49.452;8.466;2023-08-06T05:55:42;16.50;99.90
12460;DHT22;6295;49.452;8.466;2023-08-06T05:59:45;16.50;99.90
12460;DHT22;6295;49.452;8.466;2023-08-06T06:03:47;16.40;99.90
12460;DHT22;6295;49.452;8.466;2023-08-06T06:07:49;16.40;99.90
12460;DHT22;6295;49.452;8.466;2023-08-06T06:11:52;16.40;99.90
12460;DHT22;6295;49.452;8.466;2023-08-06T06:15:55;16.40;99.90
12460;DHT22;6295;49.452;8.466;2023-08-06T06:19:57;16.30;99.90
12460;DHT22;6295;49.452;8.466;2023-08-06T06:28:03;16.40;99.90
12460;DHT22;6295;49.452;8.466;2023-08-06T06:32:06;16.30;99.90
12460;DHT22;6295;49.452;8.466;2023-08-06T06:36:08;16.30;99.90
12460;DHT22;6295;49.452;8.466;2023-08-06T06:40:11;16.30;99.90
12460;DHT22;6295;49.452;8.466;2023-08-06T06:44:15;16.30;99.90
12460;DHT22;6295;49.452;8.466;2023-08-06T06:48:21;16.30;99.90
12460;DHT22;6295;49.452;8.466;2023-08-06T06:52:27;16.40;99.90
12460;DHT22;6295;49.452;8.466;2023-08-06T06:56:29;16.40;99.90
12460;DHT22;6295;49.452;8.466;2023-08-06T07:00:35;16.50;99.90
12460;DHT22;6295;49.452;8.466;2023-08-06T07:04:37;16.50;99.90
12460;DHT22;6295;49.452;8.466;2023-08-06T07:08:40;16.60;99.90
12460;DHT22;6295;49.452;8.466;2023-08-06T07:12:42;16.60;99.90
12460;DHT22;6295;49.452;8.466;2023-08-06T07:16:45;16.70;99.90
12460;DHT22;6295;49.452;8.466;2023-08-06T07:20:51;16.60;99.90
12460;DHT22;6295;49.452;8.466;2023-08-06T07:24:56;16.60;99.90
12460;DHT22;6295;49.452;8.466;2023-08-06T07:28:58;16.70;99.90
12460;DHT22;6295;49.452;8.466;2023-08-06T07:33:01;16.70;99.90
12460;DHT22;6295;49.452;8.466;2023-08-06T07:37:04;16.70;99.90
12460;DHT22;6295;49.452;8.466;2023-08-06T07:41:06;16.70;99.90
12460;DHT22;6295;49.452;8.466;2023-08-06T07:45:09;16.70;99.90
12460;DHT22;6295;49.452;8.466;2023-08-06T07:49:13;16.70;99.90
12460;DHT22;6295;49.452;8.466;2023-08-06T07:53:15;16.70;99.90
12460;DHT22;6295;49.452;8.466;2023-08-06T07:57:18;16.70;99.90
12460;DHT22;6295;49.452;8.466;2023-08-06T08:01:20;16.70;99.90
12460;DHT22;6295;49.452;8.466;2023-08-06T08:05:24;16.80;99.90
12460;DHT22;6295;49.452;8.466;2023-08-06T08:09:26;16.80;99.90
12460;DHT22;6295;49.452;8.466;2023-08-06T08:13:28;17.00;99.90
12460;DHT22;6295;49.452;8.466;2023-08-06T08:17:30;17.10;99.90
12460;DHT22;6295;49.452;8.466;2023-08-06T08:21:34;17.20;99.90
12460;DHT22;6295;49.452;8.466;2023-08-06T08:25:36;17.20;99.90
12460;DHT22;6295;49.452;8.466;2023-08-06T08:29:39;17.10;99.90
12460;DHT22;6295;49.452;8.466;2023-08-06T08:33:41;17.10;99.90
12460;DHT22;6295;49.452;8.466;2023-08-06T08:37:45;17.00;99.90
12460;DHT22;6295;49.452;8.466;2023-08-06T08:41:47;17.00;99.90
12460;DHT22;6295;49.452;8.466;2023-08-06T08:45:52;17.10;99.90
12460;DHT22;6295;49.452;8.466;2023-08-06T08:49:57;17.20;99.90
12460;DHT22;6295;49.452;8.466;2023-08-06T08:54:03;17.30;99.90
12460;DHT22;6295;49.452;8.466;2023-08-06T08:58:05;17.40;99.90
12460;DHT22;6295;49.452;8.466;2023-08-06T09:02:10;17.40;99.90
12460;DHT22;6295;49.452;8.466;2023-08-06T09:06:13;17.50;99.90
12460;DHT22;6295;49.452;8.466;2023-08-06T09:10:19;17.40;99.90
12460;DHT22;6295;49.452;8.466;2023-08-06T09:14:24;17.30;99.90
12460;DHT22;6295;49.452;8.466;2023-08-06T09:18:26;17.30;99.90
12460;DHT22;6295;49.452;8.466;2023-08-06T09:22:34;17.30;99.90
12460;DHT22;6295;49.452;8.466;2023-08-06T09:26:38;17.40;99.90
12460;DHT22;6295;49.452;8.466;2023-08-06T09:30:41;17.50;99.90
12460;DHT22;6295;49.452;8.466;2023-08-06T09:34:46;17.60;99.90
12460;DHT22;6295;49.452;8.466;2023-08-06T09:38:53;17.50;99.90
12460;DHT22;6295;49.452;8.466;2023-08-06T09:42:57;17.40;99.90
12460;DHT22;6295;49.452;8.466;2023-08-06T09:47:00;17.30;99.90
12460;DHT22;6295;49.452;8.466;2023-08-06T09:51:03;17.20;99.90
12460;DHT22;6295;49.452;8.466;2023-08-06T09:59:10;17.10;99.90
12460;DHT22;6295;49.452;8.466;2023-08-06T10:03:13;17.10;99.90
12460;DHT22;6295;49.452;8.466;2023-08-06T10:07:18;17.10;99.90
12460;DHT22;6295;49.452;8.466;2023-08-06T10:11:25;17.10;99.90
12460;DHT22;6295;49.452;8.466;2023-08-06T10:15:31;17.00;99.90
12460;DHT22;6295;49.452;8.466;2023-08-06T10:19:34;16.90;99.90
12460;DHT22;6295;49.452;8.466;2023-08-06T10:23:36;16.80;99.90
12460;DHT22;6295;49.452;8.466;2023-08-06T10:27:53;16.70;99.90
12460;DHT22;6295;49.452;8.466;2023-08-06T10:32:00;16.70;99.90
12460;DHT22;6295;49.452;8.466;2023-08-06T10:40:13;16.60;99.90
12460;DHT22;6295;49.452;8.466;2023-08-06T10:44:28;16.50;99.90
12460;DHT22;6295;49.452;8.466;2023-08-06T10:48:36;16.50;99.90
12460;DHT22;6295;49.452;8.466;2023-08-06T10:52:38;16.50;99.90
12460;DHT22;6295;49.452;8.466;2023-08-06T10:56:41;16.40;99.90
12460;DHT22;6295;49.452;8.466;2023-08-06T11:00:43;16.40;99.90
12460;DHT22;6295;49.452;8.466;2023-08-06T11:04:48;16.40;99.90
12460;DHT22;6295;49.452;8.466;2023-08-06T11:08:51;16.40;99.90
12460;DHT22;6295;49.452;8.466;2023-08-06T11:12:53;16.40;99.90
12460;DHT22;6295;49.452;8.466;2023-08-06T11:16:55;16.50;99.90
12460;DHT22;6295;49.452;8.466;2023-08-06T11:21:02;16.50;99.90
12460;DHT22;6295;49.452;8.466;2023-08-06T11:25:06;16.60;99.90
12460;DHT22;6295;49.452;8.466;2023-08-06T11:29:08;16.70;99.90
12460;DHT22;6295;49.452;8.466;2023-08-06T11:33:10;16.80;99.90
12460;DHT22;6295;49.452;8.466;2023-08-06T11:37:14;16.80;99.90
12460;DHT22;6295;49.452;8.466;2023-08-06T11:41:18;16.90;99.90
12460;DHT22;6295;49.452;8.466;2023-08-06T11:45:22;16.90;99.90
12460;DHT22;6295;49.452;8.466;2023-08-06T11:49:38;17.00;99.90
12460;DHT22;6295;49.452;8.466;2023-08-06T11:53:48;17.00;99.90
12460;DHT22;6295;49.452;8.466;2023-08-06T11:57:53;17.00;99.90
12460;DHT22;6295;49.452;8.466;2023-08-06T12:01:55;17.00;99.90
12460;DHT22;6295;49.452;8.466;2023-08-06T12:05:58;17.00;99.90
12460;DHT22;6295;49.452;8.466;2023-08-06T12:10:01;17.10;99.90
12460;DHT22;6295;49.452;8.466;2023-08-06T12:14:03;17.10;99.90
12460;DHT22;6295;49.452;8.466;2023-08-06T12:18:06;17.00;99.90
12460;DHT22;6295;49.452;8.466;2023-08-06T12:22:08;17.00;99.90
12460;DHT22;6295;49.452;8.466;2023-08-06T12:26:12;17.00;99.90
12460;DHT22;6295;49.452;8.466;2023-08-06T12:30:14;17.10;99.90
12460;DHT22;6295;49.452;8.466;2023-08-06T12:34:16;17.00;99.90
12460;DHT22;6295;49.452;8.466;2023-08-06T12:38:18;17.10;99.90
12460;DHT22;6295;49.452;8.466;2023-08-06T12:42:22;17.10;99.90
12460;DHT22;6295;49.452;8.466;2023-08-06T12:46:25;17.10;99.90
12460;DHT22;6295;49.452;8.466;2023-08-06T12:50:27;17.10;99.90
12460;DHT22;6295;49.452;8.466;2023-08-06T12:54:29;17.00;99.90
12460;DHT22;6295;49.452;8.466;2023-08-06T12:58:38;17.00;99.90
12460;DHT22;6295;49.452;8.466;2023-08-06T13:02:40;17.00;99.90
12460;DHT22;6295;49.452;8.466;2023-08-06T13:06:42;16.90;99.90
12460;DHT22;6295;49.452;8.466;2023-08-06T13:10:45;16.90;99.90
12460;DHT22;6295;49.452;8.466;2023-08-06T13:14:49;16.90;99.90
12460;DHT22;6295;49.452;8.466;2023-08-06T13:18:54;17.00;99.90
12460;DHT22;6295;49.452;8.466;2023-08-06T13:22:58;17.00;99.90
12460;DHT22;6295;49.452;8.466;2023-08-06T13:27:02;17.00;99.90
12460;DHT22;6295;49.452;8.466;2023-08-06T13:31:06;17.00;99.90
12460;DHT22;6295;49.452;8.466;2023-08-06T13:35:08;17.00;99.90
12460;DHT22;6295;49.452;8.466;2023-08-06T13:39:10;17.00;99.90
12460;DHT22;6295;49.452;8.466;2023-08-06T13:43:13;17.00;99.90
12460;DHT22;6295;49.452;8.466;2023-08-06T13:47:18;17.00;99.90
12460;DHT22;6295;49.452;8.466;2023-08-06T13:51:20;17.00;99.90
12460;DHT22;6295;49.452;8.466;2023-08-06T13:55:22;16.90;99.90
12460;DHT22;6295;49.452;8.466;2023-08-06T13:59:24;17.00;99.90
12460;DHT22;6295;49.452;8.466;2023-08-06T14:03:28;16.90;99.90
12460;DHT22;6295;49.452;8.466;2023-08-06T14:07:30;16.90;99.90
12460;DHT22;6295;49.452;8.466;2023-08-06T14:11:33;16.90;99.90
12460;DHT22;6295;49.452;8.466;2023-08-06T14:15:37;16.80;99.90
12460;DHT22;6295;49.452;8.466;2023-08-06T14:19:46;16.80;99.90
12460;DHT22;6295;49.452;8.466;2023-08-06T14:23:49;16.70;99.90
12460;DHT22;6295;49.452;8.466;2023-08-06T14:27:52;16.80;99.90
12460;DHT22;6295;49.452;8.466;2023-08-06T14:31:54;16.80;99.90
12460;DHT22;6295;49.452;8.466;2023-08-06T14:35:57;16.80;99.90
12460;DHT22;6295;49.452;8.466;2023-08-06T14:39:59;16.80;99.90
12460;DHT22;6295;49.452;8.466;2023-08-06T14:48:04;16.90;99.90
12460;DHT22;6295;49.452;8.466;2023-08-06T14:52:08;16.90;99.90
12460;DHT22;6295;49.452;8.466;2023-08-06T14:56:10;16.90;99.90
12460;DHT22;6295;49.452;8.466;2023-08-06T15:00:13;17.00;99.90
12460;DHT22;6295;49.452;8.466;2023-08-06T15:04:15;17.00;99.90
12460;DHT22;6295;49.452;8.466;2023-08-06T15:08:19;17.00;99.90
12460;DHT22;6295;49.452;8.466;2023-08-06T15:12:21;16.90;99.90
12460;DHT22;6295;49.452;8.466;2023-08-06T15:16:23;16.80;99.90
12460;DHT22;6295;49.452;8.466;2023-08-06T15:20:26;16.70;99.90
12460;DHT22;6295;49.452;8.466;2023-08-06T15:24:29;16.60;99.90
12460;DHT22;6295;49.452;8.466;2023-08-06T15:28:31;16.50;99.90
12460;DHT22;6295;49.452;8.466;2023-08-06T15:32:34;16.50;99.90
12460;DHT22;6295;49.452;8.466;2023-08-06T15:36:36;16.50;99.90
12460;DHT22;6295;49.452;8.466;2023-08-06T15:40:40;16.40;99.90
12460;DHT22;6295;49.452;8.466;2023-08-06T15:48:45;16.40;99.90
12460;DHT22;6295;49.452;8.466;2023-08-06T15:52:52;16.40;99.90
12460;DHT22;6295;49.452;8.466;2023-08-06T15:56:57;16.30;99.90
12460;DHT22;6295;49.452;8.466;2023-08-06T16:00:59;16.30;99.90
12460;DHT22;6295;49.452;8.466;2023-08-06T16:09:07;16.30;99.90
12460;DHT22;6295;49.452;8.466;2023-08-06T16:17:15;16.30;99.90
12460;DHT22;6295;49.452;8.466;2023-08-06T16:21:18;16.30;99.90
12460;DHT22;6295;49.452;8.466;2023-08-06T16:25:20;16.30;99.90
12460;DHT22;6295;49.452;8.466;2023-08-06T16:37:29;16.40;99.90
12460;DHT22;6295;49.452;8.466;2023-08-06T16:41:31;16.40;99.90
12460;DHT22;6295;49.452;8.466;2023-08-06T16:45:37;16.40;99.90
12460;DHT22;6295;49.452;8.466;2023-08-06T16:49:40;16.40;99.90
12460;DHT22;6295;49.452;8.466;2023-08-06T16:53:42;16.40;99.90
12460;DHT22;6295;49.452;8.466;2023-08-06T16:57:45;16.30;99.90
12460;DHT22;6295;49.452;8.466;2023-08-06T17:01:49;16.30;99.90
12460;DHT22;6295;49.452;8.466;2023-08-06T17:13:57;16.20;99.90
12460;DHT22;6295;49.452;8.466;2023-08-06T17:18:03;16.20;99.90
12460;DHT22;6295;49.452;8.466;2023-08-06T17:22:05;16.30;99.90
12460;DHT22;6295;49.452;8.466;2023-08-06T17:30:12;16.30;99.90
12460;DHT22;6295;49.452;8.466;2023-08-06T17:34:16;16.30;99.90
12460;DHT22;6295;49.452;8.466;2023-08-06T17:38:18;16.30;99.90
12460;DHT22;6295;49.452;8.466;2023-08-06T17:42:20;16.30;99.90
12460;DHT22;6295;49.452;8.466;2023-08-06T17:50:28;16.30;99.90
12460;DHT22;6295;49.452;8.466;2023-08-06T17:54:30;16.30;99.90
12460;DHT22;6295;49.452;8.466;2023-08-06T18:02:38;16.30;99.90
12460;DHT22;6295;49.452;8.466;2023-08-06T18:06:42;16.30;99.90
12460;DHT22;6295;49.452;8.466;2023-08-06T18:10:44;16.30;99.90
12460;DHT22;6295;49.452;8.466;2023-08-06T18:14:47;16.30;99.90
12460;DHT22;6295;49.452;8.466;2023-08-06T18:18:50;16.20;99.90
12460;DHT22;6295;49.452;8.466;2023-08-06T18:22:55;16.20;99.90
12460;DHT22;6295;49.452;8.466;2023-08-06T18:31:05;16.10;99.90
12460;DHT22;6295;49.452;8.466;2023-08-06T18:35:08;16.10;99.90
12460;DHT22;6295;49.452;8.466;2023-08-06T18:39:12;16.00;99.90
12460;DHT22;6295;49.452;8.466;2023-08-06T18:43:14;16.00;99.90
12460;DHT22;6295;49.452;8.466;2023-08-06T18:47:16;15.90;99.90
12460;DHT22;6295;49.452;8.466;2023-08-06T18:51:21;15.90;99.90
12460;DHT22;6295;49.452;8.466;2023-08-06T18:55:25;15.90;99.90
